createdAt,value
2023-03-25T00:01:59.736Z,41.52
2023-03-25T00:04:28.110Z,41.49
2023-03-25T00:06:56.855Z,41.66
2023-03-25T00:09:27.344Z,41.55
2023-03-25T00:11:55.617Z,41.73
2023-03-25T00:14:25.309Z,41.60
2023-03-25T00:16:53.881Z,41.65
2023-03-25T00:19:22.187Z,41.77
2023-03-25T00:21:50.630Z,42.21
2023-03-25T00:24:21.217Z,42.01
2023-03-25T00:26:49.591Z,42.30
2023-03-25T00:29:18.482Z,42.06
2023-03-25T00:31:47.734Z,41.76
2023-03-25T00:34:16.432Z,41.60
2023-03-25T00:36:49.181Z,41.59
2023-03-25T00:39:18.512Z,41.47
2023-03-25T00:41:48.502Z,41.59
2023-03-25T00:44:18.447Z,41.42
2023-03-25T00:46:47.490Z,41.60
2023-03-25T00:49:25.272Z,41.37
2023-03-25T00:51:56.924Z,41.40
2023-03-25T00:54:28.506Z,41.34
2023-03-25T00:56:57.372Z,40.90
2023-03-25T00:59:26.096Z,41.19
2023-03-25T01:01:56.539Z,40.98
2023-03-25T01:04:25.080Z,41.09
2023-03-25T01:06:55.254Z,41.07
2023-03-25T01:09:24.528Z,40.62
2023-03-25T01:11:53.113Z,40.37
2023-03-25T01:14:22.728Z,40.56
2023-03-25T01:16:56.505Z,40.24
2023-03-25T01:19:25.450Z,40.33
2023-03-25T01:22:03.522Z,40.13
2023-03-25T01:24:32.395Z,40.19
2023-03-25T01:27:00.964Z,40.10
2023-03-25T01:29:30.627Z,39.79
2023-03-25T01:31:59.183Z,39.88
2023-03-25T01:34:27.744Z,39.82
2023-03-25T01:36:56.076Z,39.83
2023-03-25T01:39:24.708Z,39.62
2023-03-25T01:41:55.428Z,39.79
2023-03-25T01:44:24.347Z,39.85
2023-03-25T01:46:54.431Z,39.58
2023-03-25T01:49:31.477Z,39.51
2023-03-25T01:52:07.461Z,39.40
2023-03-25T01:54:38.945Z,39.16
2023-03-25T01:57:09.827Z,39.20
2023-03-25T01:59:38.690Z,39.21
2023-03-25T02:02:09.288Z,39.33
2023-03-25T02:04:44.386Z,38.99
2023-03-25T02:07:12.849Z,39.12
2023-03-25T02:09:41.455Z,38.90
2023-03-25T02:12:10.126Z,38.98
2023-03-25T02:14:39.337Z,38.97
2023-03-25T02:17:34.564Z,38.75
2023-03-25T02:20:29.647Z,38.82
2023-03-25T02:23:17.004Z,38.97
2023-03-25T02:26:19.828Z,39.10
2023-03-25T02:29:02.684Z,39.07
2023-03-25T02:32:12.403Z,39.25
2023-03-25T02:35:23.837Z,38.91
2023-03-25T02:38:18.667Z,39.02
2023-03-25T02:40:58.782Z,39.07
2023-03-25T02:44:21.128Z,39.02
2023-03-25T02:46:51.908Z,39.10
2023-03-25T02:49:24.415Z,39.39
2023-03-25T02:51:56.303Z,39.51
2023-03-25T02:54:28.938Z,39.53
2023-03-25T02:56:57.826Z,39.32
2023-03-25T02:59:33.975Z,39.48
2023-03-25T03:02:03.851Z,39.44
2023-03-25T03:04:32.799Z,39.62
2023-03-25T03:07:08.324Z,39.60
2023-03-25T03:09:52.651Z,39.46
2023-03-25T03:12:37.851Z,39.38
2023-03-25T03:15:37.476Z,40.00
2023-03-25T03:18:10.618Z,39.78
2023-03-25T03:20:51.047Z,39.65
2023-03-25T03:23:25.342Z,39.29
2023-03-25T03:26:02.994Z,39.58
2023-03-25T03:28:41.821Z,39.65
2023-03-25T03:31:47.406Z,39.47
2023-03-25T03:34:46.600Z,39.39
2023-03-25T03:37:17.271Z,39.80
2023-03-25T03:39:48.175Z,39.87
2023-03-25T03:42:34.685Z,40.19
2023-03-25T03:45:07.624Z,40.27
2023-03-25T03:47:39.597Z,40.08
2023-03-25T03:50:13.958Z,40.05
2023-03-25T03:52:46.379Z,40.12
2023-03-25T03:55:43.821Z,40.06
2023-03-25T03:58:24.281Z,39.83
2023-03-25T04:01:03.741Z,39.73
2023-03-25T04:03:39.088Z,39.90
2023-03-25T04:06:13.668Z,40.21
2023-03-25T04:08:52.757Z,39.97
2023-03-25T04:11:23.516Z,40.39
2023-03-25T04:13:52.613Z,40.16
2023-03-25T04:16:20.991Z,40.15
2023-03-25T04:18:53.900Z,40.33
2023-03-25T04:21:25.623Z,40.26
2023-03-25T04:23:54.059Z,40.08
2023-03-25T04:26:22.356Z,40.08
2023-03-25T04:28:53.013Z,40.17
2023-03-25T04:31:21.966Z,40.53
2023-03-25T04:33:50.801Z,40.26
2023-03-25T04:36:20.278Z,40.33
2023-03-25T04:38:48.864Z,40.47
2023-03-25T04:41:23.379Z,40.45
2023-03-25T04:43:51.823Z,40.35
2023-03-25T04:46:20.709Z,40.67
2023-03-25T04:48:53.953Z,40.43
2023-03-25T04:51:23.603Z,40.89
2023-03-25T04:53:56.789Z,41.11
2023-03-25T04:56:25.122Z,40.84
2023-03-25T04:58:53.619Z,40.78
2023-03-25T05:01:30.898Z,40.88
2023-03-25T05:04:07.149Z,41.01
2023-03-25T05:06:39.173Z,41.16
2023-03-25T05:09:09.769Z,41.09
2023-03-25T05:11:39.858Z,40.93
2023-03-25T05:14:18.680Z,40.82
2023-03-25T05:16:48.673Z,40.73
2023-03-25T05:19:19.071Z,41.00
2023-03-25T05:21:49.464Z,41.20
2023-03-25T05:24:17.841Z,41.26
2023-03-25T05:26:46.533Z,41.12
2023-03-25T05:29:15.489Z,41.28
2023-03-25T05:31:45.901Z,41.00
2023-03-25T05:34:20.892Z,41.33
2023-03-25T05:36:50.336Z,40.86
2023-03-25T05:39:19.237Z,41.03
2023-03-25T05:41:47.514Z,41.32
2023-03-25T05:44:20.515Z,41.06
2023-03-25T05:46:49.171Z,41.27
2023-03-25T05:49:17.666Z,41.06
2023-03-25T05:51:54.340Z,41.08
2023-03-25T05:54:24.721Z,40.79
2023-03-25T05:56:53.038Z,40.83
2023-03-25T05:59:21.845Z,40.96
2023-03-25T06:01:50.234Z,40.93
2023-03-25T06:04:18.711Z,41.21
2023-03-25T06:06:48.704Z,41.14
2023-03-25T06:09:18.072Z,40.49
2023-03-25T06:11:53.655Z,40.74
2023-03-25T06:14:25.725Z,40.70
2023-03-25T06:16:57.101Z,40.77
2023-03-25T06:20:22.299Z,43.60
2023-03-25T06:22:51.111Z,41.22
2023-03-25T06:25:24.481Z,41.17
2023-03-25T06:27:53.448Z,41.02
2023-03-25T06:30:21.938Z,41.12
2023-03-25T06:33:10.930Z,40.68
2023-03-25T06:35:43.248Z,40.81
2023-03-25T06:38:11.761Z,41.09
2023-03-25T06:40:59.877Z,40.90
2023-03-25T06:43:31.116Z,41.21
2023-03-25T06:46:20.763Z,40.99
2023-03-25T06:49:10.016Z,41.11
2023-03-25T06:51:38.604Z,40.94
2023-03-25T06:54:09.820Z,40.78
2023-03-25T06:56:38.806Z,40.95
2023-03-25T06:59:07.306Z,41.08
2023-03-25T07:01:36.426Z,41.04
2023-03-25T07:04:05.460Z,41.16
2023-03-25T07:06:42.928Z,40.87
2023-03-25T07:09:11.794Z,40.86
2023-03-25T07:11:40.306Z,40.66
2023-03-25T07:14:12.450Z,40.87
2023-03-25T07:16:40.817Z,40.92
2023-03-25T07:19:10.590Z,40.57
2023-03-25T07:21:39.817Z,40.93
2023-03-25T07:24:08.784Z,40.61
2023-03-25T07:26:37.817Z,40.62
2023-03-25T07:29:08.405Z,40.59
2023-03-25T07:31:37.350Z,40.49
2023-03-25T07:34:08.066Z,40.24
2023-03-25T07:36:37.427Z,39.99
2023-03-25T07:39:08.071Z,40.42
2023-03-25T07:41:37.218Z,40.78
2023-03-25T07:44:26.557Z,40.30
2023-03-25T07:47:01.305Z,40.05
2023-03-25T07:49:30.123Z,40.12
2023-03-25T07:51:59.209Z,39.83
2023-03-25T07:54:28.680Z,39.74
2023-03-25T07:56:57.806Z,39.97
2023-03-25T07:59:29.716Z,39.64
2023-03-25T08:01:58.374Z,39.80
2023-03-25T08:04:26.888Z,39.47
2023-03-25T08:06:57.699Z,39.31
2023-03-25T08:09:28.230Z,39.56
2023-03-25T08:11:57.104Z,39.23
2023-03-25T08:14:25.737Z,38.90
2023-03-25T08:16:55.163Z,39.27
2023-03-25T08:19:23.826Z,39.57
2023-03-25T08:21:58.010Z,39.44
2023-03-25T08:24:27.463Z,39.13
2023-03-25T08:27:01.590Z,39.39
2023-03-25T08:29:47.386Z,39.08
2023-03-25T08:32:15.683Z,38.96
2023-03-25T08:34:44.230Z,39.35
2023-03-25T08:37:13.996Z,39.45
2023-03-25T08:39:45.328Z,38.80
2023-03-25T08:42:15.663Z,38.82
2023-03-25T08:44:44.357Z,39.00
2023-03-25T08:47:13.163Z,39.04
2023-03-25T08:49:41.677Z,39.07
2023-03-25T08:52:11.037Z,39.15
2023-03-25T08:54:40.847Z,39.37
2023-03-25T08:57:10.455Z,39.33
2023-03-25T08:59:39.710Z,39.22
2023-03-25T09:02:09.909Z,39.31
2023-03-25T09:04:41.043Z,39.37
2023-03-25T09:07:12.553Z,39.17
2023-03-25T09:09:41.772Z,39.29
2023-03-25T09:12:11.996Z,39.09
2023-03-25T09:14:41.269Z,39.04
2023-03-25T09:17:11.126Z,38.85
2023-03-25T09:19:41.398Z,39.12
2023-03-25T09:22:10.517Z,39.01
2023-03-25T09:24:39.195Z,38.84
2023-03-25T09:27:07.909Z,38.81
2023-03-25T09:29:36.762Z,38.74
2023-03-25T09:32:18.942Z,38.68
2023-03-25T09:34:48.705Z,38.76
2023-03-25T09:37:17.212Z,38.75
2023-03-25T09:39:46.743Z,38.75
2023-03-25T09:42:34.632Z,38.87
2023-03-25T09:45:13.512Z,38.84
2023-03-25T09:47:53.321Z,38.69
2023-03-25T09:50:21.717Z,38.76
2023-03-25T09:53:08.576Z,38.93
2023-03-25T09:55:40.916Z,38.66
2023-03-25T09:58:22.559Z,38.81
2023-03-25T10:01:17.690Z,39.05
2023-03-25T10:04:29.173Z,38.97
2023-03-25T10:07:20.427Z,38.86
2023-03-25T10:10:07.541Z,38.78
2023-03-25T10:12:44.238Z,38.50
2023-03-25T10:15:29.159Z,38.82
2023-03-25T10:18:42.422Z,38.40
2023-03-25T10:21:36.103Z,38.33
2023-03-25T10:24:13.826Z,38.59
2023-03-25T10:27:08.529Z,38.51
2023-03-25T10:30:18.841Z,38.57
2023-03-25T10:33:19.039Z,38.74
2023-03-25T10:35:49.005Z,38.89
2023-03-25T10:38:21.760Z,38.77
2023-03-25T10:40:53.388Z,38.78
2023-03-25T10:43:37.028Z,38.85
2023-03-25T10:46:24.567Z,38.95
2023-03-25T10:48:58.469Z,38.96
2023-03-25T10:51:32.661Z,38.79
2023-03-25T10:54:05.724Z,38.60
2023-03-25T10:56:39.705Z,38.61
2023-03-25T10:59:18.707Z,38.25
2023-03-25T11:01:47.364Z,38.42
2023-03-25T11:04:19.686Z,38.60
2023-03-25T11:06:53.005Z,38.43
2023-03-25T11:09:30.853Z,38.32
2023-03-25T11:12:00.163Z,38.25
2023-03-25T11:14:29.822Z,38.11
2023-03-25T11:17:06.279Z,38.06
2023-03-25T11:19:42.352Z,38.13
2023-03-25T11:22:25.741Z,38.11
2023-03-25T11:25:03.579Z,38.04
2023-03-25T11:27:32.272Z,37.58
2023-03-25T11:30:03.205Z,37.99
2023-03-25T11:32:38.236Z,37.77
2023-03-25T11:35:17.909Z,37.60
2023-03-25T11:37:49.195Z,37.52
2023-03-25T11:40:18.308Z,37.60
2023-03-25T11:42:52.588Z,37.81
2023-03-25T11:45:46.471Z,37.99
2023-03-25T11:48:21.944Z,37.84
2023-03-25T11:50:55.976Z,38.00
2023-03-25T11:53:27.779Z,38.12
2023-03-25T11:56:05.140Z,38.07
2023-03-25T11:58:34.652Z,37.95
2023-03-25T12:01:21.505Z,37.90
2023-03-25T12:03:50.469Z,37.70
2023-03-25T12:06:23.910Z,37.89
2023-03-25T12:08:59.741Z,38.02
2023-03-25T12:12:16.890Z,38.11
2023-03-25T12:14:49.146Z,37.56
2023-03-25T12:17:55.475Z,37.66
2023-03-25T12:20:43.136Z,37.69
2023-03-25T12:23:27.181Z,37.87
2023-03-25T12:26:06.856Z,37.56
2023-03-25T12:29:22.783Z,37.37
2023-03-25T12:32:32.954Z,37.65
2023-03-25T12:35:08.796Z,37.59
2023-03-25T12:37:48.330Z,37.64
2023-03-25T12:40:41.953Z,37.52
2023-03-25T12:43:12.130Z,37.38
2023-03-25T12:45:54.689Z,37.23
2023-03-25T12:48:47.092Z,37.14
2023-03-25T12:51:43.367Z,36.92
2023-03-25T12:54:18.190Z,37.04
2023-03-25T12:57:20.641Z,36.95
2023-03-25T13:00:01.424Z,36.88
2023-03-25T13:02:49.921Z,36.80
2023-03-25T13:05:33.321Z,36.71
2023-03-25T13:08:14.720Z,36.62
2023-03-25T13:10:43.914Z,36.44
2023-03-25T13:13:24.611Z,36.45
2023-03-25T13:16:17.982Z,36.49
2023-03-25T13:19:02.604Z,36.39
2023-03-25T13:21:52.848Z,36.00
2023-03-25T13:24:36.181Z,36.08
2023-03-25T13:27:04.869Z,35.43
2023-03-25T13:29:54.401Z,35.42
2023-03-25T13:32:35.290Z,35.68
2023-03-25T13:35:35.001Z,35.84
2023-03-25T13:38:07.424Z,35.53
2023-03-25T13:40:42.989Z,35.41
2023-03-25T13:43:31.119Z,35.38
2023-03-25T13:46:05.228Z,35.63
2023-03-25T13:48:53.127Z,35.54
2023-03-25T13:51:21.908Z,35.73
2023-03-25T13:54:12.758Z,35.68
2023-03-25T13:57:00.444Z,35.96
2023-03-25T13:59:33.149Z,36.12
2023-03-25T14:02:24.976Z,36.27
2023-03-25T14:05:17.140Z,36.46
2023-03-25T14:08:01.692Z,36.41
2023-03-25T14:10:58.151Z,36.73
2023-03-25T14:13:29.672Z,36.77
2023-03-25T14:16:07.522Z,36.68
2023-03-25T14:19:03.552Z,37.02
2023-03-25T14:21:41.771Z,37.02
2023-03-25T14:24:29.875Z,36.92
2023-03-25T14:27:03.053Z,36.93
2023-03-25T14:30:03.001Z,37.20
2023-03-25T14:32:41.605Z,37.24
2023-03-25T14:35:32.084Z,37.26
2023-03-25T14:38:09.689Z,37.72
2023-03-25T14:40:42.344Z,37.96
2023-03-25T14:43:25.534Z,38.09
2023-03-25T14:45:59.578Z,37.88
2023-03-25T14:48:38.007Z,37.94
2023-03-25T14:51:15.753Z,37.91
2023-03-25T14:54:05.138Z,37.99
2023-03-25T14:56:35.897Z,38.05
2023-03-25T14:59:14.704Z,37.96
2023-03-25T15:01:44.364Z,38.03
2023-03-25T15:04:18.697Z,37.94
2023-03-25T15:06:52.248Z,38.11
2023-03-25T15:09:21.336Z,38.22
2023-03-25T15:12:01.521Z,38.10
2023-03-25T15:14:32.964Z,38.38
2023-03-25T15:17:11.192Z,38.19
2023-03-25T15:20:09.910Z,38.34
2023-03-25T15:22:38.866Z,38.28
2023-03-25T15:25:25.677Z,38.28
2023-03-25T15:28:19.740Z,38.17
2023-03-25T15:31:13.520Z,38.31
2023-03-25T15:34:39.701Z,38.73
2023-03-25T15:37:45.134Z,39.24
2023-03-25T15:40:36.741Z,39.26
2023-03-25T15:43:34.521Z,39.43
2023-03-25T15:46:15.009Z,39.71
2023-03-25T15:49:08.983Z,39.11
2023-03-25T15:52:14.113Z,38.94
2023-03-25T15:54:54.502Z,39.52
2023-03-25T15:57:46.230Z,39.83
2023-03-25T16:00:22.633Z,39.98
2023-03-25T16:03:04.261Z,40.27
2023-03-25T16:05:38.844Z,40.70
2023-03-25T16:08:11.864Z,41.24
2023-03-25T16:10:41.720Z,41.12
2023-03-25T16:13:24.158Z,41.51
2023-03-25T16:15:57.529Z,41.37
2023-03-25T16:18:26.414Z,41.67
2023-03-25T16:20:59.952Z,42.36
2023-03-25T16:23:28.333Z,43.07
2023-03-25T16:25:56.992Z,42.32
2023-03-25T16:28:32.141Z,41.64
2023-03-25T16:31:03.082Z,41.97
2023-03-25T16:33:33.377Z,43.01
2023-03-25T16:36:09.941Z,43.46
2023-03-25T16:38:38.252Z,43.58
2023-03-25T16:41:13.991Z,44.24
2023-03-25T16:43:42.665Z,44.35
2023-03-25T16:46:12.319Z,44.01
2023-03-25T16:48:51.363Z,43.59
2023-03-25T16:51:23.923Z,43.16
2023-03-25T16:53:53.958Z,43.06
2023-03-25T16:56:33.316Z,42.73
2023-03-25T16:59:06.945Z,44.13
2023-03-25T17:01:45.176Z,44.50
2023-03-25T17:04:19.085Z,45.81
2023-03-25T17:06:58.281Z,48.63
2023-03-25T17:09:34.576Z,50.05
2023-03-25T17:12:06.782Z,49.78
2023-03-25T17:14:40.581Z,48.46
2023-03-25T17:17:32.677Z,48.91
2023-03-25T17:20:06.964Z,48.82
2023-03-25T17:22:39.494Z,48.23
2023-03-25T17:25:28.563Z,48.76
2023-03-25T17:28:01.108Z,50.09
2023-03-25T17:30:43.228Z,49.42
2023-03-25T17:33:19.738Z,50.43
2023-03-25T17:35:54.051Z,51.41
2023-03-25T17:38:36.646Z,51.16
2023-03-25T17:41:07.884Z,51.67
2023-03-25T17:43:41.599Z,50.63
2023-03-25T17:46:25.959Z,51.91
2023-03-25T17:48:59.419Z,54.32
2023-03-25T17:51:29.882Z,57.11
2023-03-25T17:54:01.702Z,59.81
2023-03-25T17:56:31.049Z,62.40
2023-03-25T17:59:19.767Z,63.24
2023-03-25T18:01:50.810Z,63.48
2023-03-25T18:04:20.952Z,60.91
2023-03-25T18:06:49.812Z,60.43
2023-03-25T18:09:20.610Z,59.46
2023-03-25T18:11:53.190Z,59.60
2023-03-25T18:14:25.474Z,60.35
2023-03-25T18:16:54.580Z,60.65
2023-03-25T18:19:25.801Z,59.90
2023-03-25T18:21:55.251Z,59.84
2023-03-25T18:24:25.073Z,58.86
2023-03-25T18:26:53.862Z,59.19
2023-03-25T18:29:25.290Z,59.34
2023-03-25T18:31:54.849Z,60.59
2023-03-25T18:36:42.170Z,74.79
2023-03-25T18:39:14.412Z,63.11
2023-03-25T18:41:43.999Z,61.38
2023-03-25T18:44:12.733Z,59.47
2023-03-25T18:46:41.742Z,59.18
2023-03-25T18:49:19.497Z,59.22
2023-03-25T18:51:48.573Z,60.30
2023-03-25T18:54:17.594Z,60.37
2023-03-25T18:56:46.718Z,62.12
2023-03-25T18:59:21.379Z,63.20
2023-03-25T19:01:51.101Z,62.97
2023-03-25T19:04:19.954Z,61.01
2023-03-25T19:06:53.896Z,59.95
2023-03-25T19:09:24.034Z,59.24
2023-03-25T19:11:52.570Z,59.43
2023-03-25T19:14:21.818Z,58.89
2023-03-25T19:17:01.297Z,58.05
2023-03-25T19:19:32.074Z,60.19
2023-03-25T19:22:01.322Z,62.29
2023-03-25T19:24:30.444Z,64.32
2023-03-25T19:26:59.492Z,65.79
2023-03-25T19:29:28.285Z,67.12
2023-03-25T19:31:57.106Z,65.84
2023-03-25T19:34:25.945Z,64.04
2023-03-25T19:37:02.928Z,64.26
2023-03-25T19:39:31.823Z,65.63
2023-03-25T19:42:00.934Z,64.14
2023-03-25T19:44:30.295Z,65.52
2023-03-25T19:47:01.216Z,68.22
2023-03-25T19:49:39.414Z,69.41
2023-03-25T19:52:08.911Z,68.81
2023-03-25T19:54:40.965Z,68.15
2023-03-25T19:57:09.907Z,68.33
2023-03-25T19:59:45.364Z,68.51
2023-03-25T20:02:15.849Z,68.41
2023-03-25T20:04:44.762Z,69.77
2023-03-25T20:07:20.598Z,71.55
2023-03-25T20:09:49.046Z,71.21
2023-03-25T20:12:17.478Z,72.44
2023-03-25T20:14:46.322Z,72.64
2023-03-25T20:17:14.990Z,73.05
2023-03-25T20:19:43.725Z,73.77
2023-03-25T20:22:24.086Z,73.51
2023-03-25T20:24:55.730Z,73.72
2023-03-25T20:27:31.606Z,73.23
2023-03-25T20:30:01.105Z,73.63
2023-03-25T20:32:39.848Z,73.45
2023-03-25T20:35:11.619Z,72.15
2023-03-25T20:37:41.605Z,70.61
2023-03-25T20:40:14.589Z,70.10
2023-03-25T20:42:44.243Z,68.09
2023-03-25T20:45:17.458Z,67.08
2023-03-25T20:47:46.459Z,66.99
2023-03-25T20:50:16.695Z,66.53
2023-03-25T20:52:46.186Z,67.59
2023-03-25T20:55:14.849Z,67.09
2023-03-25T20:57:44.685Z,67.50
2023-03-25T21:00:14.632Z,68.01
2023-03-25T21:02:45.093Z,69.56
2023-03-25T21:05:13.492Z,68.93
2023-03-25T21:07:43.003Z,69.52
2023-03-25T21:10:11.694Z,69.64
2023-03-25T21:12:45.078Z,70.59
2023-03-25T21:15:16.743Z,71.03
2023-03-25T21:17:45.162Z,72.48
2023-03-25T21:20:16.577Z,72.94
2023-03-25T21:22:44.947Z,73.51
2023-03-25T21:25:15.128Z,73.31
2023-03-25T21:27:45.424Z,74.70
2023-03-25T21:30:15.227Z,73.82
2023-03-25T21:32:45.002Z,73.56
2023-03-25T21:35:14.058Z,73.80
2023-03-25T21:37:42.473Z,74.00
2023-03-25T21:40:11.788Z,73.56
2023-03-25T21:42:41.629Z,74.01
2023-03-25T21:45:11.911Z,75.40
2023-03-25T21:47:41.613Z,74.90
2023-03-25T21:50:11.744Z,74.16
2023-03-25T21:52:47.223Z,74.08
2023-03-25T21:55:15.910Z,74.78
2023-03-25T21:57:45.362Z,76.01
2023-03-25T22:00:16.600Z,76.65
2023-03-25T22:02:47.903Z,76.80
2023-03-25T22:05:16.704Z,77.40
2023-03-25T22:07:45.571Z,77.24
2023-03-25T22:10:14.380Z,78.08
2023-03-25T22:12:42.805Z,77.76
2023-03-25T22:15:13.952Z,78.24
2023-03-25T22:17:44.429Z,78.03
2023-03-25T22:20:13.664Z,78.64
2023-03-25T22:22:43.307Z,80.45
2023-03-25T22:25:11.514Z,82.55
2023-03-25T22:27:40.000Z,83.34
2023-03-25T22:30:09.033Z,84.04
2023-03-25T22:32:37.675Z,84.22
2023-03-25T22:35:06.757Z,84.96
2023-03-25T22:37:37.416Z,85.86
2023-03-25T22:40:08.741Z,86.89
2023-03-25T22:42:39.529Z,86.09
2023-03-25T22:45:08.432Z,85.59
2023-03-25T22:47:38.641Z,85.84
2023-03-25T22:50:07.894Z,85.03
2023-03-25T22:52:41.577Z,85.75
2023-03-25T22:55:10.240Z,84.67
2023-03-25T22:57:38.569Z,84.35
2023-03-25T23:00:12.990Z,83.15
2023-03-25T23:02:41.764Z,84.48
2023-03-25T23:05:11.352Z,83.50
2023-03-25T23:07:39.701Z,83.34
2023-03-25T23:10:09.546Z,82.89
2023-03-25T23:12:38.055Z,82.88
2023-03-25T23:15:08.209Z,81.96
2023-03-25T23:17:37.184Z,81.89
2023-03-25T23:20:08.654Z,82.06
2023-03-25T23:22:43.061Z,82.27
2023-03-25T23:25:11.791Z,82.84
2023-03-25T23:27:40.145Z,83.49
2023-03-25T23:30:09.145Z,83.68
2023-03-25T23:32:37.508Z,83.76
2023-03-25T23:35:06.796Z,83.16
2023-03-25T23:37:35.731Z,83.26
2023-03-25T23:40:07.434Z,83.29
2023-03-25T23:42:36.216Z,83.03
2023-03-25T23:45:05.219Z,81.82
2023-03-25T23:47:33.557Z,83.18
2023-03-25T23:50:02.179Z,83.35
2023-03-25T23:52:33.534Z,83.23
2023-03-25T23:55:02.554Z,83.07
2023-03-25T23:57:30.994Z,82.43
2023-03-25T23:59:59.209Z,82.33
